Time;durP1;ratioP1;P1;durP2;ratioP2;P2;SDS_P1;SDS_P2;PMS_P1;PMS_P2;Temp;Humidity;BMP_temperature;BMP_pressure;BME280_temperature;BME280_humidity;BME280_pressure;Samples;Min_cycle;Max_cycle;Signal;HPM_P1;HPM_P2
2023/06/12 00:02:18;;;;;;;12.93;8.80;;;14.00;17.90;;;;;;4807312;29;20035;-52
2023/06/12 00:04:44;;;;;;;16.00;9.60;;;14.00;18.40;;;;;;4807345;29;20376;-56
2023/06/12 00:07:11;;;;;;;19.98;8.63;;;14.00;20.50;;;;;;4807334;29;20539;-53
2023/06/12 00:09:37;;;;;;;13.90;9.52;;;14.00;23.00;;;;;;4807353;29;20023;-55
2023/06/12 00:12:03;;;;;;;17.58;9.20;;;14.10;22.30;;;;;;4807093;29;20459;-56
2023/06/12 00:14:29;;;;;;;12.05;9.63;;;14.10;25.60;;;;;;4807238;29;20039;-55
2023/06/12 00:16:54;;;;;;;11.35;9.15;;;14.20;24.50;;;;;;4807275;29;20042;-57
2023/06/12 00:19:20;;;;;;;16.10;10.25;;;14.30;26.00;;;;;;4806951;29;20031;-54
2023/06/12 00:21:46;;;;;;;13.75;9.57;;;14.30;25.00;;;;;;4807274;29;20114;-56
2023/06/12 00:24:11;;;;;;;17.73;9.15;;;14.40;20.30;;;;;;4806842;29;20501;-54
2023/06/12 00:26:38;;;;;;;15.70;11.15;;;14.40;15.10;;;;;;4806945;29;20058;-52
2023/06/12 00:29:03;;;;;;;21.77;10.32;;;14.30;20.10;;;;;;4806877;29;20035;-55
2023/06/12 00:31:29;;;;;;;13.82;9.23;;;14.20;9.70;;;;;;4807045;29;20046;-55
2023/06/12 00:33:55;;;;;;;14.73;10.52;;;14.10;22.10;;;;;;4807020;29;20042;-57
2023/06/12 00:36:21;;;;;;;11.77;9.80;;;14.00;25.40;;;;;;4806784;29;20121;-56
2023/06/12 00:38:46;;;;;;;18.60;8.88;;;13.90;25.20;;;;;;4806922;29;20475;-55
2023/06/12 00:41:12;;;;;;;20.95;9.63;;;13.80;31.00;;;;;;4806616;29;20088;-56
2023/06/12 00:43:38;;;;;;;14.32;9.48;;;13.80;29.70;;;;;;4806685;29;20452;-56
2023/06/12 00:46:05;;;;;;;12.25;10.40;;;13.60;38.70;;;;;;4806665;29;20403;-56
2023/06/12 00:48:31;;;;;;;11.35;10.07;;;13.60;41.50;;;;;;4806743;29;20023;-53
2023/06/12 00:50:58;;;;;;;13.82;11.18;;;13.40;48.90;;;;;;4806481;29;20551;-55
2023/06/12 00:53:23;;;;;;;13.40;10.40;;;13.40;59.70;;;;;;4806458;29;20404;-55
2023/06/12 00:55:49;;;;;;;15.30;12.57;;;13.30;69.60;;;;;;4806474;29;20038;-56
2023/06/12 00:58:15;;;;;;;16.90;12.18;;;13.50;76.20;;;;;;4806348;29;20084;-55
2023/06/12 01:00:40;;;;;;;17.35;12.90;;;13.60;77.70;;;;;;4806505;29;20118;-54
2023/06/12 01:03:09;;;;;;;12.65;11.38;;;13.70;76.00;;;;;;4806269;29;20039;-53
2023/06/12 01:05:38;;;;;;;14.50;12.82;;;13.90;78.10;;;;;;4820192;29;20074;-52
2023/06/12 01:08:26;;;;;;;23.15;12.80;;;14.00;78.50;;;;;;4806207;29;20046;-56
2023/06/12 01:10:57;;;;;;;18.38;13.48;;;14.20;77.20;;;;;;4806224;29;20038;-55
2023/06/12 01:13:23;;;;;;;15.38;13.82;;;14.30;75.40;;;;;;4806153;29;20470;-55
2023/06/12 01:15:49;;;;;;;16.02;14.32;;;14.40;73.30;;;;;;4806205;29;20117;-55
2023/06/12 01:18:16;;;;;;;16.92;15.00;;;14.50;76.00;;;;;;4805985;29;20688;-55
2023/06/12 01:20:43;;;;;;;18.67;16.75;;;14.50;80.60;;;;;;4806298;29;20034;-56
2023/06/12 01:23:26;;;;;;;26.92;17.17;;;14.60;81.00;;;;;;4806004;29;20034;-56
2023/06/12 01:26:33;;;;;;;19.67;17.67;;;14.70;80.50;;;;;;4805898;29;20054;-53
2023/06/12 01:29:20;;;;;;;21.88;17.17;;;14.70;80.50;;;;;;4806031;29;20391;-55
2023/06/12 01:32:07;;;;;;;29.60;18.08;;;14.70;80.00;;;;;;4805918;29;20106;-55
2023/06/12 01:34:37;;;;;;;21.25;17.55;;;14.70;80.00;;;;;;4805779;29;20337;-53
2023/06/12 01:37:26;;;;;;;19.05;16.95;;;14.70;81.80;;;;;;4805774;29;20035;-55
2023/06/12 01:40:00;;;;;;;19.75;17.65;;;14.70;81.10;;;;;;4805840;29;20035;-54
2023/06/12 01:42:27;;;;;;;20.42;16.92;;;14.70;81.30;;;;;;4805839;29;20034;-56
2023/06/12 01:44:54;;;;;;;20.50;18.10;;;14.60;81.70;;;;;;4805673;29;20031;-51
2023/06/12 01:47:20;;;;;;;23.00;17.50;;;14.60;80.20;;;;;;4805541;29;20027;-55
2023/06/12 01:49:46;;;;;;;18.92;16.90;;;14.70;81.80;;;;;;4819666;29;20038;-55
2023/06/12 01:52:12;;;;;;;21.60;16.00;;;14.60;79.20;;;;;;4805363;29;20463;-53
2023/06/12 01:54:38;;;;;;;20.48;16.95;;;14.60;76.80;;;;;;4819543;29;20055;-55
2023/06/12 01:57:05;;;;;;;16.65;14.88;;;14.60;75.30;;;;;;4805367;29;20034;-56
2023/06/12 01:59:32;;;;;;;18.70;16.00;;;14.50;72.80;;;;;;4805439;29;20030;-55
2023/06/12 02:01:58;;;;;;;23.33;14.50;;;14.50;69.40;;;;;;4805478;29;20514;-53
2023/06/12 02:04:23;;;;;;;17.52;14.82;;;14.50;69.50;;;;;;4804668;29;20043;-54
2023/06/12 02:06:49;;;;;;;18.30;14.57;;;14.50;66.20;;;;;;4805277;29;20039;-52
2023/06/12 02:09:15;;;;;;;15.50;13.23;;;14.50;64.90;;;;;;4805172;29;20026;-56
2023/06/12 02:11:42;;;;;;;19.92;15.02;;;14.50;63.20;;;;;;4805396;29;20387;-54
2023/06/12 02:14:07;;;;;;;17.98;12.30;;;14.40;59.80;;;;;;4805016;29;20042;-55
2023/06/12 02:16:33;;;;;;;26.80;13.20;;;14.40;55.70;;;;;;4805235;29;20035;-56
2023/06/12 02:18:59;;;;;;;18.00;12.88;;;14.30;59.70;;;;;;4805152;29;20483;-55
2023/06/12 02:21:25;;;;;;;22.90;12.00;;;14.30;60.40;;;;;;4805175;29;20041;-56
2023/06/12 02:23:50;;;;;;;25.83;14.20;;;14.30;60.00;;;;;;4805065;29;20490;-52
2023/06/12 02:26:17;;;;;;;15.65;11.20;;;14.30;59.70;;;;;;4804778;29;20126;-53
2023/06/12 02:28:43;;;;;;;15.20;12.30;;;14.30;58.10;;;;;;4804989;29;20054;-53
2023/06/12 02:31:09;;;;;;;15.75;12.73;;;14.30;55.70;;;;;;4804866;29;20034;-55
2023/06/12 02:33:37;;;;;;;17.30;13.00;;;14.20;54.20;;;;;;4805058;29;20026;-52
2023/06/12 02:36:03;;;;;;;17.80;12.35;;;14.20;56.10;;;;;;4804862;29;20422;-56
2023/06/12 02:38:29;;;;;;;15.32;11.68;;;14.20;54.40;;;;;;4804716;29;20047;-52
2023/06/12 02:40:54;;;;;;;13.30;11.90;;;14.20;53.20;;;;;;4804923;29;20030;-55
2023/06/12 02:43:20;;;;;;;12.70;11.38;;;14.20;50.50;;;;;;4804542;29;20037;-56
2023/06/12 02:45:45;;;;;;;15.57;10.48;;;14.20;51.30;;;;;;4804889;29;20031;-53
2023/06/12 02:48:11;;;;;;;12.90;11.60;;;14.20;48.10;;;;;;4804691;29;20031;-53
2023/06/12 02:50:37;;;;;;;18.98;11.75;;;14.10;47.10;;;;;;4804708;29;20033;-57
2023/06/12 02:53:02;;;;;;;18.20;11.77;;;14.10;43.40;;;;;;4804552;29;20031;-52
2023/06/12 02:55:28;;;;;;;12.93;11.55;;;14.10;45.00;;;;;;4804718;29;20731;-53
2023/06/12 02:57:53;;;;;;;19.63;11.60;;;14.00;44.70;;;;;;4804623;29;20091;-54
2023/06/12 03:00:19;;;;;;;13.25;11.50;;;14.00;44.80;;;;;;4804719;29;20030;-56
2023/06/12 03:02:47;;;;;;;16.92;10.98;;;14.00;42.60;;;;;;4804652;29;20409;-55
2023/06/12 03:05:14;;;;;;;15.60;11.10;;;13.90;41.30;;;;;;4804503;29;20352;-54
2023/06/12 03:07:41;;;;;;;15.02;11.20;;;13.90;38.90;;;;;;4804608;29;20038;-55
2023/06/12 03:10:08;;;;;;;11.48;9.88;;;13.90;37.60;;;;;;4804417;29;20054;-55
2023/06/12 03:12:34;;;;;;;19.05;11.00;;;13.90;36.20;;;;;;4804523;29;20436;-53
2023/06/12 03:15:01;;;;;;;12.38;10.75;;;13.90;33.30;;;;;;4805936;29;20030;-53
2023/06/12 03:17:26;;;;;;;14.85;11.00;;;13.80;30.00;;;;;;4808216;29;20055;-54
2023/06/12 03:19:52;;;;;;;18.70;10.90;;;13.70;30.00;;;;;;4808230;29;20034;-56
2023/06/12 03:22:18;;;;;;;15.57;10.80;;;13.60;33.40;;;;;;4807969;29;20065;-54
2023/06/12 03:24:43;;;;;;;20.52;10.73;;;13.60;36.70;;;;;;4807984;29;20357;-56
2023/06/12 03:27:10;;;;;;;15.70;11.85;;;13.70;39.30;;;;;;4807827;29;20055;-55
2023/06/12 03:29:36;;;;;;;19.10;11.05;;;13.70;39.70;;;;;;4807995;29;20027;-52
2023/06/12 03:32:01;;;;;;;16.33;10.90;;;13.80;37.00;;;;;;4807766;29;20037;-53
2023/06/12 03:34:28;;;;;;;25.75;11.35;;;13.80;31.40;;;;;;4806882;29;20030;-55
2023/06/12 03:36:54;;;;;;;14.98;10.30;;;13.90;29.60;;;;;;4807914;29;20490;-52
2023/06/12 03:39:20;;;;;;;14.05;9.80;;;13.90;32.50;;;;;;4807785;29;20137;-53
2023/06/12 03:41:55;;;;;;;18.80;11.13;;;13.90;30.40;;;;;;4807886;29;20403;-52
2023/06/12 03:44:22;;;;;;;20.52;11.50;;;13.90;25.00;;;;;;4821427;29;20092;-55
2023/06/12 03:46:47;;;;;;;14.82;11.32;;;14.00;25.20;;;;;;4807833;29;20041;-53
2023/06/12 03:49:13;;;;;;;14.30;11.98;;;14.00;25.20;;;;;;4807568;29;20031;-55
2023/06/12 03:51:38;;;;;;;13.18;10.63;;;14.00;23.80;;;;;;4807687;29;20042;-56
2023/06/12 03:54:05;;;;;;;19.75;11.65;;;14.00;24.60;;;;;;4807075;29;20047;-53
2023/06/12 03:56:30;;;;;;;13.00;10.85;;;14.00;21.10;;;;;;4807530;29;20111;-55
2023/06/12 03:58:56;;;;;;;18.05;11.45;;;14.00;25.30;;;;;;4807657;29;20093;-53
2023/06/12 04:01:22;;;;;;;20.67;10.57;;;14.00;21.80;;;;;;4807377;29;20047;-55
2023/06/12 04:03:48;;;;;;;16.50;11.20;;;14.00;21.80;;;;;;4807441;29;20038;-54
2023/06/12 04:06:14;;;;;;;12.93;10.32;;;14.00;22.80;;;;;;4807057;29;20419;-52
2023/06/12 04:08:40;;;;;;;15.88;11.55;;;14.00;20.50;;;;;;4807240;29;20106;-53
2023/06/12 04:11:09;;;;;;;17.48;9.98;;;14.00;24.20;;;;;;4807295;29;20035;-55
2023/06/12 04:13:36;;;;;;;13.80;10.65;;;14.10;22.50;;;;;;4807294;29;20060;-53
2023/06/12 04:16:02;;;;;;;11.40;10.15;;;14.10;22.40;;;;;;4807047;29;20102;-52
2023/06/12 04:18:28;;;;;;;25.73;11.05;;;14.10;23.40;;;;;;4807087;29;20046;-54
2023/06/12 04:20:55;;;;;;;16.27;11.60;;;14.20;19.80;;;;;;4807000;29;20031;-52
2023/06/12 04:23:20;;;;;;;14.30;11.45;;;14.20;22.30;;;;;;4806998;29;20027;-52
2023/06/12 04:25:48;;;;;;;14.60;10.10;;;14.20;20.10;;;;;;4805240;29;20509;-52
2023/06/12 04:28:16;;;;;;;14.32;10.00;;;14.30;19.50;;;;;;4805579;29;20088;-52
2023/06/12 04:30:44;;;;;;;14.18;10.25;;;14.30;17.90;;;;;;4806327;29;20484;-53
2023/06/12 04:33:11;;;;;;;15.57;10.68;;;14.40;16.20;;;;;;4806459;29;20438;-52
2023/06/12 04:35:37;;;;;;;16.25;10.73;;;14.40;14.60;;;;;;4805958;29;20105;-53
2023/06/12 04:38:05;;;;;;;23.50;11.55;;;14.40;17.00;;;;;;4805945;29;20047;-53
2023/06/12 04:40:35;;;;;;;17.75;10.32;;;14.50;13.60;;;;;;4820167;29;20027;-51
2023/06/12 04:43:03;;;;;;;11.13;9.98;;;14.60;9.90;;;;;;4806599;29;20027;-52
2023/06/12 04:45:32;;;;;;;16.48;11.10;;;14.60;9.60;;;;;;4806654;29;20031;-52
2023/06/12 04:47:57;;;;;;;15.13;10.45;;;14.70;8.70;;;;;;4806529;29;20052;-56
2023/06/12 04:50:25;;;;;;;17.55;9.45;;;14.80;6.30;;;;;;4820371;29;20035;-52
2023/06/12 04:52:52;;;;;;;14.98;9.90;;;14.90;1.00;;;;;;4806534;29;20029;-54
2023/06/12 04:55:22;;;;;;;13.60;9.10;;;14.90;5.60;;;;;;4806381;29;20448;-51
2023/06/12 04:57:53;;;;;;;13.98;10.93;;;15.00;6.90;;;;;;4806528;29;20026;-52
2023/06/12 05:00:20;;;;;;;14.75;8.90;;;15.10;1.00;;;;;;4806394;29;20059;-51
2023/06/12 05:02:46;;;;;;;13.93;10.77;;;15.20;1.00;;;;;;4806281;29;20450;-55
2023/06/12 05:05:12;;;;;;;22.10;10.45;;;15.20;1.00;;;;;;4804905;29;20058;-52
2023/06/12 05:07:41;;;;;;;17.67;10.32;;;15.20;1.00;;;;;;4806322;29;20063;-52
2023/06/12 05:10:07;;;;;;;12.75;9.77;;;15.30;1.00;;;;;;4806174;29;20031;-57
2023/06/12 05:12:33;;;;;;;14.27;8.57;;;15.20;1.00;;;;;;4805982;29;20023;-55
2023/06/12 05:15:01;;;;;;;12.63;8.73;;;15.40;1.00;;;;;;4806060;29;20035;-54
2023/06/12 05:17:27;;;;;;;11.07;9.85;;;15.50;1.00;;;;;;4805893;29;20062;-58
2023/06/12 05:19:53;;;;;;;12.88;8.48;;;15.60;1.00;;;;;;4820029;29;20038;-57
2023/06/12 05:22:19;;;;;;;12.80;9.45;;;15.60;1.00;;;;;;4805850;29;20066;-54
2023/06/12 05:24:44;;;;;;;32.30;18.15;;;15.70;1.00;;;;;;4806018;29;20035;-53
2023/06/12 05:27:10;;;;;;;22.50;9.13;;;15.80;1.00;;;;;;4805680;29;20515;-57
2023/06/12 05:29:36;;;;;;;16.83;8.43;;;15.80;1.00;;;;;;4805917;29;20058;-53
2023/06/12 05:32:02;;;;;;;9.43;7.82;;;15.90;1.00;;;;;;4805675;29;20066;-56
2023/06/12 05:34:27;;;;;;;16.42;8.30;;;15.90;1.00;;;;;;4805582;29;20432;-56
2023/06/12 05:36:54;;;;;;;15.55;8.32;;;16.00;1.00;;;;;;4805621;29;20039;-57
2023/06/12 05:39:20;;;;;;;14.60;8.30;;;16.10;1.00;;;;;;4804589;29;20034;-56
2023/06/12 05:41:45;;;;;;;12.18;8.20;;;16.10;1.00;;;;;;4805796;29;20476;-54
2023/06/12 05:44:11;;;;;;;13.60;8.27;;;16.20;1.00;;;;;;4805417;29;20031;-54
2023/06/12 05:46:37;;;;;;;10.75;8.25;;;16.30;1.00;;;;;;4805697;29;20122;-54
2023/06/12 05:49:03;;;;;;;11.13;7.57;;;16.30;1.00;;;;;;4805622;29;20095;-56
2023/06/12 05:51:29;;;;;;;16.23;8.23;;;16.30;1.00;;;;;;4805593;29;20082;-56
2023/06/12 05:53:54;;;;;;;14.52;7.50;;;16.40;1.00;;;;;;4805642;29;20467;-55
2023/06/12 05:56:22;;;;;;;8.32;6.50;;;16.50;1.00;;;;;;4805311;29;20367;-55
2023/06/12 05:58:54;;;;;;;11.27;8.13;;;16.60;99.90;;;;;;5088689;27;20393;-55
2023/06/12 06:01:22;;;;;;;10.32;7.80;;;16.70;99.90;;;;;;5088633;28;20082;-53
2023/06/12 06:03:48;;;;;;;15.98;8.30;;;16.50;99.90;;;;;;5089238;28;20021;-55
2023/06/12 06:06:18;;;;;;;17.48;9.25;;;16.60;99.90;;;;;;5088939;28;20486;-55
2023/06/12 06:08:44;;;;;;;11.45;8.32;;;16.60;99.90;;;;;;5089025;28;20028;-55
2023/06/12 06:11:10;;;;;;;12.65;7.95;;;16.60;99.90;;;;;;5088877;28;20024;-56
2023/06/12 06:13:35;;;;;;;10.50;8.43;;;16.70;99.90;;;;;;5088954;28;20028;-55
2023/06/12 06:16:02;;;;;;;15.77;7.55;;;16.70;99.90;;;;;;5087474;28;20036;-56
2023/06/12 06:18:30;;;;;;;10.90;7.95;;;16.70;99.90;;;;;;5088654;28;20535;-56
2023/06/12 06:20:56;;;;;;;12.15;8.38;;;16.70;99.90;;;;;;5088775;28;20138;-56
2023/06/12 06:23:22;;;;;;;12.65;8.38;;;16.80;99.90;;;;;;5088717;28;20030;-55
2023/06/12 06:25:48;;;;;;;18.40;8.50;;;16.80;99.90;;;;;;5088829;28;20024;-55
2023/06/12 06:28:14;;;;;;;15.68;8.50;;;16.80;99.90;;;;;;5087259;28;20024;-56
2023/06/12 06:30:40;;;;;;;11.38;8.40;;;16.90;99.90;;;;;;5088649;28;20403;-57
2023/06/12 06:33:06;;;;;;;18.27;8.10;;;17.00;99.90;;;;;;5088573;28;20025;-56
2023/06/12 06:35:32;;;;;;;16.98;7.53;;;16.90;99.90;;;;;;5088602;28;20032;-57
2023/06/12 06:37:58;;;;;;;15.88;8.68;;;16.90;99.90;;;;;;5088298;28;20047;-56
2023/06/12 06:40:24;;;;;;;13.95;8.82;;;16.90;99.90;;;;;;5088474;28;20024;-57
2023/06/12 06:42:50;;;;;;;18.55;7.72;;;17.00;99.90;;;;;;5088433;28;20020;-58
2023/06/12 06:45:16;;;;;;;10.05;7.50;;;17.10;99.90;;;;;;5088294;28;20019;-56
2023/06/12 06:47:41;;;;;;;12.13;7.72;;;17.20;99.90;;;;;;5088487;28;20043;-56
2023/06/12 06:50:07;;;;;;;16.05;8.98;;;17.20;89.30;;;;;;5088119;28;20024;-56
2023/06/12 06:52:33;;;;;;;13.75;7.82;;;17.30;37.10;;;;;;5088119;28;20043;-59
2023/06/12 06:54:59;;;;;;;16.67;8.07;;;17.50;63.60;;;;;;5088021;28;20024;-56
2023/06/12 06:57:25;;;;;;;13.68;8.60;;;17.60;1.00;;;;;;5087707;28;20127;-57
2023/06/12 06:59:54;;;;;;;16.45;7.38;;;17.70;1.00;;;;;;5088070;28;20051;-55
2023/06/12 07:02:20;;;;;;;10.68;8.93;;;17.70;2.90;;;;;;5087865;28;20028;-57
2023/06/12 07:04:46;;;;;;;15.48;8.25;;;17.70;1.00;;;;;;5088097;28;20449;-58
2023/06/12 07:07:12;;;;;;;9.20;7.80;;;17.80;1.00;;;;;;5087787;28;20030;-58
2023/06/12 07:09:38;;;;;;;14.70;8.88;;;17.80;1.00;;;;;;5078147;28;20021;-57
2023/06/12 07:12:03;;;;;;;19.92;8.05;;;18.00;89.60;;;;;;5074101;28;20028;-59
2023/06/12 07:14:29;;;;;;;14.38;6.88;;;18.20;1.00;;;;;;5074472;28;20022;-56
2023/06/12 07:16:55;;;;;;;23.33;8.32;;;18.30;99.90;;;;;;5074127;28;20028;-58
2023/06/12 07:19:20;;;;;;;19.90;8.63;;;18.30;1.00;;;;;;5074104;28;20032;-57
2023/06/12 07:21:46;;;;;;;11.90;7.18;;;18.40;99.90;;;;;;5073997;28;20013;-57
2023/06/12 07:24:12;;;;;;;18.67;10.32;;;18.50;99.90;;;;;;5073459;28;20376;-57
2023/06/12 07:26:38;;;;;;;11.52;7.20;;;18.60;1.00;;;;;;5073818;28;20021;-55
2023/06/12 07:29:03;;;;;;;18.27;6.88;;;18.50;99.90;;;;;;5072348;28;20029;-57
2023/06/12 07:31:29;;;;;;;16.83;7.53;;;18.60;47.90;;;;;;5073398;28;20051;-56
2023/06/12 07:33:55;;;;;;;10.30;7.22;;;18.70;99.90;;;;;;5074030;28;20023;-57
2023/06/12 07:36:21;;;;;;;13.77;7.63;;;18.80;99.90;;;;;;5073836;28;20635;-57
2023/06/12 07:38:46;;;;;;;8.25;7.25;;;18.90;1.00;;;;;;5073755;28;20056;-56
2023/06/12 07:41:12;;;;;;;13.73;8.23;;;18.90;99.90;;;;;;5073757;28;20017;-57
2023/06/12 07:43:37;;;;;;;12.07;8.23;;;18.80;99.90;;;;;;5073888;28;20399;-56
2023/06/12 07:46:04;;;;;;;10.18;8.02;;;19.00;28.20;;;;;;5073670;28;20024;-57
2023/06/12 07:48:30;;;;;;;18.30;8.18;;;19.10;37.00;;;;;;5073874;28;20024;-56
2023/06/12 07:50:55;;;;;;;20.13;7.53;;;19.10;1.00;;;;;;5073676;28;20023;-56
2023/06/12 07:53:22;;;;;;;13.05;7.53;;;19.10;1.00;;;;;;5073410;28;20079;-54
2023/06/12 07:55:49;;;;;;;10.73;7.30;;;19.20;4.40;;;;;;5073671;28;20025;-55
2023/06/12 07:58:14;;;;;;;11.88;7.68;;;19.20;99.90;;;;;;5073037;28;20032;-56
2023/06/12 08:00:40;;;;;;;18.83;7.85;;;19.20;99.90;;;;;;5073472;28;20017;-57
2023/06/12 08:03:08;;;;;;;12.65;6.63;;;19.30;1.00;;;;;;5073303;28;20025;-56
2023/06/12 08:05:35;;;;;;;9.45;6.80;;;19.40;99.90;;;;;;5073582;28;20556;-57
2023/06/12 08:08:00;;;;;;;9.23;6.25;;;19.40;95.80;;;;;;5071779;28;20028;-55
2023/06/12 08:10:26;;;;;;;9.63;6.38;;;19.50;1.00;;;;;;5073321;28;20471;-57
2023/06/12 08:12:52;;;;;;;11.75;6.00;;;19.60;99.90;;;;;;5073348;28;20021;-57
2023/06/12 08:15:19;;;;;;;14.90;6.15;;;19.80;1.00;;;;;;5073044;28;20028;-54
2023/06/12 08:17:44;;;;;;;13.43;5.38;;;19.80;99.90;;;;;;5073206;28;20064;-56
2023/06/12 08:20:11;;;;;;;14.60;5.57;;;19.90;1.00;;;;;;5072277;28;20379;-52
2023/06/12 08:22:37;;;;;;;9.88;5.65;;;19.90;1.00;;;;;;5072689;28;20447;-55
2023/06/12 08:25:04;;;;;;;9.52;5.90;;;19.90;1.00;;;;;;5072825;28;20032;-56
2023/06/12 08:27:30;;;;;;;7.88;5.28;;;20.20;1.00;;;;;;5072978;28;20020;-57
2023/06/12 08:29:55;;;;;;;8.45;5.05;;;20.30;1.00;;;;;;5072795;28;20021;-55
2023/06/12 08:32:22;;;;;;;7.30;4.28;;;20.40;99.90;;;;;;5072650;28;20024;-56
2023/06/12 08:34:48;;;;;;;8.50;4.70;;;20.50;1.00;;;;;;5072798;28;20485;-56
2023/06/12 08:37:14;;;;;;;6.70;4.60;;;20.40;99.90;;;;;;5072547;28;20059;-55
2023/06/12 08:39:39;;;;;;;10.82;4.50;;;20.50;99.90;;;;;;5072708;28;20055;-55
2023/06/12 08:42:08;;;;;;;5.00;4.15;;;20.60;99.90;;;;;;5072418;28;20036;-57
2023/06/12 08:44:35;;;;;;;9.20;4.57;;;20.60;99.90;;;;;;5072638;28;20047;-57
2023/06/12 08:47:03;;;;;;;6.45;4.10;;;20.60;99.90;;;;;;5072396;28;20028;-58
2023/06/12 08:49:30;;;;;;;8.35;3.70;;;20.60;99.90;;;;;;5072596;28;20024;-55
2023/06/12 08:51:56;;;;;;;9.82;4.07;;;20.70;93.80;;;;;;5072509;28;20029;-57
2023/06/12 08:54:22;;;;;;;11.02;4.32;;;20.70;64.80;;;;;;5072258;28;20044;-57
2023/06/12 08:56:48;;;;;;;5.30;3.97;;;20.70;11.00;;;;;;5072198;28;20040;-56
2023/06/12 08:59:15;;;;;;;8.68;3.60;;;20.70;1.00;;;;;;5072187;28;20031;-56
2023/06/12 09:01:41;;;;;;;4.45;3.45;;;20.80;1.00;;;;;;5071059;28;20614;-56
2023/06/12 09:04:16;;;;;;;8.57;3.78;;;20.90;1.00;;;;;;5072201;28;20024;-57
2023/06/12 09:06:43;;;;;;;6.07;3.80;;;21.20;1.00;;;;;;5072111;28;20097;-56
2023/06/12 09:09:09;;;;;;;11.55;3.85;;;21.60;1.00;;;;;;5072061;28;20097;-57
2023/06/12 09:11:39;;;;;;;8.60;3.80;;;21.80;1.00;;;;;;5071800;28;20055;-56
2023/06/12 09:14:04;;;;;;;8.38;4.00;;;21.90;1.00;;;;;;5071634;28;20035;-57
2023/06/12 09:16:30;;;;;;;10.93;3.35;;;21.80;1.00;;;;;;5071849;28;20024;-57
2023/06/12 09:18:56;;;;;;;5.68;4.03;;;21.90;1.00;;;;;;5071501;28;20451;-56
2023/06/12 09:21:23;;;;;;;4.45;3.50;;;21.90;1.00;;;;;;5071615;28;20103;-57
2023/06/12 09:23:53;;;;;;;5.18;3.88;;;22.10;1.00;;;;;;5071720;28;20465;-57
2023/06/12 09:26:21;;;;;;;7.38;3.35;;;22.10;1.00;;;;;;5071247;28;20485;-56
2023/06/12 09:28:53;;;;;;;5.20;3.20;;;22.00;1.00;;;;;;5071590;28;20020;-57
2023/06/12 09:31:19;;;;;;;7.72;3.22;;;22.00;1.00;;;;;;5071526;28;20074;-56
2023/06/12 09:33:45;;;;;;;4.43;3.45;;;21.90;1.00;;;;;;5071592;28;20046;-56
2023/06/12 09:36:12;;;;;;;6.95;3.08;;;22.20;1.00;;;;;;5071437;28;20050;-57
2023/06/12 09:38:38;;;;;;;6.60;3.95;;;22.50;1.00;;;;;;5071569;28;20017;-57
2023/06/12 09:41:07;;;;;;;3.50;3.20;;;22.70;1.00;;;;;;5071642;28;20028;-57
2023/06/12 09:43:33;;;;;;;6.70;3.72;;;22.60;1.00;;;;;;5071729;28;20038;-57
2023/06/12 09:46:03;;;;;;;5.53;3.17;;;22.60;1.00;;;;;;5071611;28;20104;-56
2023/06/12 09:48:33;;;;;;;5.03;3.17;;;22.60;1.00;;;;;;5071716;28;20469;-57
2023/06/12 09:51:06;;;;;;;11.50;3.45;;;22.90;1.00;;;;;;5071493;28;20027;-57
2023/06/12 09:53:36;;;;;;;8.13;3.10;;;23.10;1.00;;;;;;5071512;28;20027;-57
2023/06/12 09:56:07;;;;;;;5.78;3.25;;;23.20;99.90;;;;;;5071311;28;20115;-58
2023/06/12 09:58:36;;;;;;;7.90;3.35;;;23.10;99.90;;;;;;5071061;28;20098;-58
2023/06/12 10:01:05;;;;;;;16.48;3.58;;;22.90;99.90;;;;;;5070756;28;20031;-58
2023/06/12 10:03:37;;;;;;;5.20;3.45;;;23.10;99.90;;;;;;5070780;28;20497;-58
2023/06/12 10:06:05;;;;;;;5.95;3.35;;;23.20;99.90;;;;;;5070537;28;20035;-58
2023/06/12 10:08:31;;;;;;;6.60;3.38;;;23.20;99.90;;;;;;5042981;28;20033;-59
2023/06/12 10:10:57;;;;;;;4.97;3.17;;;23.20;99.90;;;;;;5039994;28;20033;-58
2023/06/12 10:13:25;;;;;;;12.75;3.63;;;23.10;99.90;;;;;;5039065;28;20478;-58
2023/06/12 10:15:52;;;;;;;7.45;3.38;;;23.20;99.90;;;;;;5037878;28;20087;-59
2023/06/12 10:18:19;;;;;;;6.85;3.28;;;23.50;99.90;;;;;;5047689;28;20029;-58
2023/06/12 10:20:46;;;;;;;11.02;3.60;;;23.60;99.90;;;;;;5046844;28;20415;-58
2023/06/12 10:23:12;;;;;;;6.40;3.50;;;23.80;99.90;;;;;;5047449;28;20017;-58
2023/06/12 10:25:38;;;;;;;7.60;3.30;;;24.10;99.90;;;;;;5047974;28;20031;-58
2023/06/12 10:28:06;;;;;;;6.25;3.33;;;24.20;99.90;;;;;;5047724;28;20028;-59
2023/06/12 10:30:31;;;;;;;4.78;2.88;;;24.20;99.90;;;;;;5047856;28;20033;-58
2023/06/12 10:33:08;;;;;;;11.30;3.08;;;24.40;99.90;;;;;;5050465;28;20032;-58
2023/06/12 10:35:34;;;;;;;9.07;3.60;;;24.60;99.90;;;;;;5049940;28;20051;-58
2023/06/12 10:38:00;;;;;;;6.18;3.40;;;24.50;99.90;;;;;;5047758;28;20025;-58
2023/06/12 10:40:30;;;;;;;6.32;3.97;;;24.40;99.90;;;;;;5047497;28;20392;-58
2023/06/12 10:43:04;;;;;;;10.52;3.10;;;24.20;99.90;;;;;;5047222;28;20056;-58
2023/06/12 10:45:32;;;;;;;4.40;3.20;;;24.30;99.90;;;;;;5051095;28;20495;-59
2023/06/12 10:48:04;;;;;;;3.83;3.30;;;24.60;99.90;;;;;;5051528;28;20419;-59
2023/06/12 10:50:37;;;;;;;8.82;2.88;;;24.80;99.90;;;;;;5051486;28;20025;-58
2023/06/12 10:53:06;;;;;;;7.57;3.40;;;24.70;99.90;;;;;;5051208;28;20033;-58
2023/06/12 10:55:33;;;;;;;6.43;3.60;;;24.70;99.90;;;;;;5051447;28;20040;-59
2023/06/12 10:58:11;;;;;;;11.02;3.85;;;25.00;99.90;;;;;;5050993;28;20033;-58
2023/06/12 11:00:47;;;;;;;8.10;2.90;;;25.20;99.90;;;;;;5051176;28;20021;-58
2023/06/12 11:03:17;;;;;;;5.00;3.25;;;24.90;99.90;;;;;;5051048;28;20036;-59
2023/06/12 11:05:55;;;;;;;6.25;3.55;;;25.00;99.90;;;;;;5051256;28;20017;-58
2023/06/12 11:08:20;;;;;;;7.75;3.08;;;25.10;99.90;;;;;;5051158;28;20017;-59
2023/06/12 11:10:46;;;;;;;10.15;3.45;;;25.10;99.90;;;;;;5050938;28;20468;-58
2023/06/12 11:13:12;;;;;;;4.93;2.90;;;25.20;99.90;;;;;;5051056;28;20035;-58
2023/06/12 11:15:46;;;;;;;6.00;4.00;;;25.20;99.90;;;;;;5050958;28;20023;-58
2023/06/12 11:18:13;;;;;;;9.50;3.58;;;25.10;99.90;;;;;;5050952;28;20032;-58
2023/06/12 11:20:40;;;;;;;6.72;3.30;;;25.40;99.90;;;;;;5050721;28;20028;-58
2023/06/12 11:23:06;;;;;;;6.43;3.03;;;25.30;99.90;;;;;;5050673;28;20033;-59
2023/06/12 11:25:42;;;;;;;4.50;3.13;;;25.80;99.90;;;;;;5050949;28;20036;-58
2023/06/12 11:28:08;;;;;;;6.65;3.22;;;25.70;99.90;;;;;;5050479;28;20021;-59
2023/06/12 11:30:34;;;;;;;5.25;3.72;;;26.00;99.90;;;;;;5050801;28;20021;-58
2023/06/12 11:33:10;;;;;;;6.75;3.30;;;26.00;99.90;;;;;;5050253;28;20500;-59
2023/06/12 11:35:43;;;;;;;4.35;3.08;;;25.90;99.90;;;;;;5050707;28;20475;-59
2023/06/12 11:38:12;;;;;;;3.13;2.83;;;26.10;99.90;;;;;;5049124;28;20029;-58
2023/06/12 11:40:39;;;;;;;5.72;3.47;;;26.00;99.90;;;;;;5050278;28;20476;-59
2023/06/12 11:43:05;;;;;;;8.80;2.95;;;25.60;99.90;;;;;;5050518;28;20021;-58
2023/06/12 11:45:31;;;;;;;6.35;2.95;;;25.80;99.90;;;;;;5052265;28;20024;-59
2023/06/12 11:47:58;;;;;;;7.05;3.10;;;25.70;99.90;;;;;;5053145;28;20029;-58
2023/06/12 11:50:25;;;;;;;6.45;3.40;;;26.00;99.90;;;;;;5053679;28;20033;-58
2023/06/12 11:52:50;;;;;;;7.32;3.80;;;25.90;99.90;;;;;;5053552;28;20032;-58
2023/06/12 11:55:16;;;;;;;10.13;3.42;;;25.90;99.90;;;;;;5052879;28;20029;-58
2023/06/12 11:57:49;;;;;;;6.25;3.20;;;26.20;99.90;;;;;;5053239;28;20119;-58
2023/06/12 12:00:20;;;;;;;5.45;3.63;;;26.30;99.90;;;;;;5053481;28;20036;-59
2023/06/12 12:02:51;;;;;;;5.95;3.40;;;26.40;99.90;;;;;;5053685;28;20039;-59
2023/06/12 12:08:40;;;;;;;7.22;3.00;;;26.30;99.90;;;;;;5053674;28;20162;-58
2023/06/12 12:11:16;;;;;;;7.68;3.55;;;26.30;99.90;;;;;;5053176;28;20021;-59
2023/06/12 12:13:52;;;;;;;4.60;3.00;;;26.60;99.90;;;;;;5053225;28;20078;-59
2023/06/12 12:16:26;;;;;;;4.30;2.75;;;27.00;99.90;;;;;;5052900;28;20384;-58
2023/06/12 12:18:52;;;;;;;4.70;3.35;;;27.70;99.90;;;;;;5051698;28;20036;-59
2023/06/12 12:21:18;;;;;;;6.90;3.70;;;28.20;99.90;;;;;;5051628;28;20025;-58
2023/06/12 12:23:45;;;;;;;3.80;3.45;;;28.70;99.90;;;;;;5053100;28;20070;-58
2023/06/12 12:26:12;;;;;;;6.00;2.42;;;29.20;99.90;;;;;;5052757;28;20021;-59
2023/06/12 12:28:38;;;;;;;9.63;3.80;;;29.70;99.90;;;;;;5052908;28;20060;-59
2023/06/12 12:31:03;;;;;;;6.32;3.40;;;29.60;99.90;;;;;;5052801;28;20372;-59
2023/06/12 12:33:29;;;;;;;7.25;3.00;;;30.00;99.90;;;;;;5052705;28;20111;-58
2023/06/12 12:35:57;;;;;;;6.93;2.80;;;30.00;99.90;;;;;;5052807;28;20044;-58
2023/06/12 12:38:23;;;;;;;10.10;3.28;;;30.40;99.90;;;;;;5052455;28;20025;-59
2023/06/12 12:40:48;;;;;;;7.38;3.10;;;30.50;99.90;;;;;;5052679;28;20052;-59
2023/06/12 12:43:14;;;;;;;7.13;3.05;;;30.80;99.90;;;;;;5052375;28;20361;-59